Stations météo

Publicité
East malling, Grande-Bretagne (99008): Température de l'air & dewpoint: 03.08.2020 23:00:00 - 09.08.2020 23:00:00 (BST)East malling, Grande-Bretagne (99008): Température de l'air -20cm: 03.08.2020 23:00:00 - 09.08.2020 23:00:00 (BST)East malling, Grande-Bretagne (99008): Vitesse du vent & gusts: 03.08.2020 23:00:00 - 09.08.2020 23:00:00 (BST)East malling, Grande-Bretagne (99008): Direction du vent: 03.08.2020 23:00:00 - 09.08.2020 23:00:00 (BST)East malling, Grande-Bretagne (99008): reduced air pressure: 03.08.2020 23:00:00 - 09.08.2020 23:00:00 (BST)East malling, Grande-Bretagne (99008): Ensoleillement: 03.08.2020 23:00:00 - 09.08.2020 23:00:00 (BST)East malling, Grande-Bretagne (99008): Quantités de précipitations: 03.08.2020 23:00:00 - 09.08.2020 23:00:00 (BST)
Date & Time tt [°C] td [°C] tt -20cm [°C] ff [km/h] ff [knt] fx [km/h] fx [knt] dd ppp [hPa] sd [min] rr [mm]
09.08.2020 23:00:00 21,8 18,2 - 5 3 - - WNW 1015,4 0 0,0
09.08.2020 22:00:00 22,1 17,7 - 5 3 - - NW 1015,5 0 0,0
09.08.2020 21:00:00 22,4 17,8 - 11 6 - - NNW 1015,4 0 0,0
09.08.2020 20:00:00 23,2 17,9 - 9 5 - - N 1015,4 42 0,0
09.08.2020 19:00:00 24,8 18,3 - 18 10 - - NNE 1015,1 48 0,0
09.08.2020 18:00:00 27,4 17,5 - 11 6 - - NNE 1015,2 48 0,0
09.08.2020 17:00:00 27,8 17,4 - 13 7 - - ENE 1015,8 48 0,0
09.08.2020 16:00:00 29,7 17,5 - 15 8 - - ENE 1016,1 60 0,0
09.08.2020 15:00:00 28,9 17,9 - 15 8 - - NE 1016,5 60 0,0
09.08.2020 14:00:00 28,4 18,2 - 13 7 - - NE 1016,7 60 0,0
09.08.2020 13:00:00 27,0 18,3 - 13 7 - - NNE 1017,2 60 0,0
09.08.2020 12:00:00 25,4 17,9 - 18 10 - - NE 1017,7 36 0,0
09.08.2020 11:00:00 23,2 17,6 - 15 8 - - NE 1018,3 18 0,0
09.08.2020 10:00:00 20,9 17,0 23,2 16 9 - - NE 1018,4 18 0,0
09.08.2020 09:00:00 20,3 16,8 - 16 9 - - NE 1018,7 36 0,0
09.08.2020 08:00:00 19,1 16,2 - 13 7 - - NNE 1019,0 18 0,0
09.08.2020 07:00:00 18,1 15,8 - 13 7 - - N 1019,1 0 0,0
09.08.2020 06:00:00 17,3 15,5 - 13 7 - - N 1019,2 0 0,0
09.08.2020 05:00:00 17,5 15,6 - 13 7 - - N 1019,1 0 0,0
09.08.2020 04:00:00 17,8 15,5 - 16 9 - - N 1019,3 0 0,0
09.08.2020 03:00:00 18,4 15,5 - 13 7 - - NNE 1019,3 0 0,0
09.08.2020 02:00:00 19,3 15,6 - 13 7 - - NNE 1019,3 0 0,0
09.08.2020 01:00:00 20,4 16,1 - 15 8 - - NNE 1019,5 - 0,0
09.08.2020 00:00:00 21,2 16,7 - 15 8 - - NE 1019,4 0 0,0
08.08.2020 23:00:00 22,4 16,8 - 11 6 - - NNE 1019,3 0 0,0
08.08.2020 22:00:00 22,7 14,8 - 9 5 - - ENE 1019,2 0 0,0
08.08.2020 21:00:00 23,0 14,8 - 5 3 - - NNE 1019,0 0 0,0
08.08.2020 20:00:00 24,8 15,2 - 8 4 - - N 1018,6 6 0,0
08.08.2020 19:00:00 27,2 14,9 - 13 7 - - NE 1018,3 18 0,0
08.08.2020 18:00:00 29,5 13,7 - 9 5 - - ENE 1018,2 24 0,0
08.08.2020 17:00:00 30,3 14,5 - 8 4 - - NE 1018,4 18 0,0
08.08.2020 16:00:00 30,0 14,9 - 13 7 - - ENE 1018,7 30 0,0
08.08.2020 15:00:00 31,1 15,4 - 16 9 - - NE 1018,8 60 0,0
08.08.2020 14:00:00 31,4 16,0 - 13 7 - - NE 1018,9 60 0,0
08.08.2020 13:00:00 30,4 15,8 - 15 8 - - N 1019,1 54 0,0
08.08.2020 12:00:00 28,4 15,6 - 11 6 - - N 1019,2 54 0,0
08.08.2020 11:00:00 26,1 15,9 - 13 7 - - N 1019,3 12 0,0
08.08.2020 10:00:00 24,0 16,2 23,2 13 7 - - NNE 1019,2 6 0,0
08.08.2020 09:00:00 23,2 16,5 - 9 5 - - N 1019,0 0 0,0
08.08.2020 08:00:00 22,4 16,5 - 8 4 - - N 1018,8 0 0,0
08.08.2020 07:00:00 20,7 16,2 - 4 2 - - E 1018,6 0 0,0
08.08.2020 06:00:00 19,9 15,5 - 2 1 - - W 1018,6 0 0,0
08.08.2020 05:00:00 19,4 14,9 - 4 2 - - S 1018,0 0 0,0
08.08.2020 04:00:00 20,2 15,4 - 2 1 - - SSW 1018,2 0 0,0
08.08.2020 03:00:00 20,7 15,8 - 2 1 - - S 1018,0 0 0,0
08.08.2020 02:00:00 21,2 14,8 - 4 2 - - S 1018,2 0 0,0
08.08.2020 01:00:00 20,8 14,8 - 5 3 - - SW 1018,5 - 0,0
08.08.2020 00:00:00 20,3 14,4 - 0 0 - - N 1018,3 0 0,0
07.08.2020 23:00:00 20,0 13,6 - 4 2 - - SSW 1018,1 0 0,0
07.08.2020 22:00:00 22,0 14,1 - 4 2 - - W 1017,9 0 0,0
07.08.2020 21:00:00 23,3 14,1 - 4 2 - - S 1017,3 0 0,0
07.08.2020 20:00:00 27,0 13,4 - 4 2 - - S 1016,6 0 0,0
07.08.2020 19:00:00 28,8 13,1 - 5 3 - - SSW 1017,0 0 0,0
07.08.2020 18:00:00 31,4 10,1 - 9 5 - - S 1017,1 12 0,0
07.08.2020 17:00:00 33,6 9,4 - 13 7 - - SSW 1017,3 60 0,0
07.08.2020 16:00:00 33,9 8,7 - 16 9 - - SSW 1017,4 60 0,0
07.08.2020 15:00:00 34,3 9,8 - 15 8 - - S 1017,4 60 0,0
07.08.2020 14:00:00 33,6 10,1 - 15 8 - - S 1017,6 60 0,0
07.08.2020 13:00:00 32,6 12,8 - 11 6 - - SSE 1017,6 60 0,0
07.08.2020 12:00:00 30,7 14,0 - 8 4 - - SSE 1018,0 60 0,0
07.08.2020 11:00:00 28,7 14,9 - 9 5 - - SSE 1018,4 60 0,0
07.08.2020 10:00:00 26,2 15,9 21,7 4 2 - - ESE 1018,6 60 0,0
07.08.2020 09:00:00 22,2 14,9 - 4 2 - - NNE 1018,7 60 0,0
07.08.2020 08:00:00 18,9 15,1 - 2 1 - - N 1018,7 60 0,0
07.08.2020 07:00:00 17,0 16,5 - 2 1 - - SSE 1018,7 42 0,0
07.08.2020 06:00:00 12,4 12,0 - 2 1 - - WSW 1018,5 0 0,0
07.08.2020 05:00:00 12,9 12,3 - 0 0 - - N 1018,4 0 0,0
07.08.2020 04:00:00 12,8 11,8 - 4 2 - - SSW 1018,4 0 0,0
07.08.2020 03:00:00 13,5 12,4 - 0 0 - - N 1018,5 0 0,0
07.08.2020 02:00:00 14,3 12,8 - 4 2 - - SSW 1018,6 0 0,0
07.08.2020 01:00:00 15,6 13,4 - 4 2 - - SSW 1018,8 - 0,0
07.08.2020 00:00:00 16,5 13,8 - 4 2 - - SW 1018,9 0 0,0
06.08.2020 23:00:00 18,3 13,8 - 2 1 - - W 1018,9 0 0,0
06.08.2020 22:00:00 21,0 13,4 - 4 2 - - SSW 1018,2 0 0,0
06.08.2020 21:00:00 22,7 11,6 - 8 4 - - SSE 1017,8 12 0,0
06.08.2020 20:00:00 26,4 10,5 - 4 2 - - S 1017,4 60 0,0
06.08.2020 19:00:00 27,8 11,6 - 9 5 - - SSW 1017,1 60 0,0
06.08.2020 18:00:00 28,6 11,9 - 9 5 - - S 1017,1 60 0,0
06.08.2020 17:00:00 28,2 13,2 - 9 5 - - S 1017,3 60 0,0
06.08.2020 16:00:00 28,4 15,2 - 13 7 - - S 1017,5 54 0,0
06.08.2020 15:00:00 27,2 15,9 - 9 5 - - SSW 1017,6 36 0,0
06.08.2020 14:00:00 27,1 16,0 - 13 7 - - S 1017,7 54 0,0
06.08.2020 13:00:00 25,9 17,0 - 9 5 - - SSW 1018,0 24 0,0
06.08.2020 12:00:00 24,9 17,3 - 11 6 - - S 1018,2 36 0,0
06.08.2020 11:00:00 21,7 16,7 - 13 7 - - SW 1018,4 0 0,0
06.08.2020 10:00:00 20,0 16,5 21,4 11 6 - - SSW 1018,3 0 0,0
06.08.2020 09:00:00 19,5 16,3 - 9 5 - - S 1018,0 0 0,0
06.08.2020 08:00:00 19,0 16,2 - 13 7 - - S 1017,5 0 0,0
06.08.2020 07:00:00 18,1 16,1 - 9 5 - - S 1017,0 0 0,0
06.08.2020 06:00:00 17,5 15,8 - 8 4 - - S 1016,6 0 0,0
06.08.2020 05:00:00 17,7 15,7 - 8 4 - - SSW 1016,3 0 0,0
06.08.2020 04:00:00 17,4 15,6 - 8 4 - - S 1015,9 0 0,0
06.08.2020 03:00:00 17,3 14,9 - 5 3 - - S 1015,8 0 0,0
06.08.2020 02:00:00 18,5 15,6 - 8 4 - - SW 1015,7 0 0,0
06.08.2020 01:00:00 18,5 15,2 - 9 5 - - SSW 1015,3 - 0,0
06.08.2020 00:00:00 19,1 14,5 - 5 3 - - SSW 1015,0 0 0,0
05.08.2020 23:00:00 19,0 14,1 - 8 4 - - SSW 1014,8 0 0,0
05.08.2020 22:00:00 19,3 13,9 - 8 4 - - SW 1014,6 0 0,0
05.08.2020 21:00:00 19,6 13,6 - 8 4 - - SW 1014,1 6 0,0
05.08.2020 20:00:00 20,7 13,6 - 15 8 - - SW 1013,7 6 0,0
05.08.2020 19:00:00 22,5 10,2 - 18 10 - - WSW 1013,4 48 0,0
05.08.2020 18:00:00 23,0 11,6 - 22 12 - - WSW 1013,3 54 0,0
05.08.2020 17:00:00 22,9 11,3 - 22 12 - - SW 1013,0 54 0,0
05.08.2020 16:00:00 24,3 7,7 - 26 14 - - SW 1013,0 60 0,0
05.08.2020 15:00:00 24,8 6,1 - 24 13 - - SSW 1013,2 54 0,0
05.08.2020 14:00:00 24,3 7,7 - 26 14 46 25 SW 1012,9 60 0,0
05.08.2020 13:00:00 24,1 8,8 - 26 14 - - SW 1012,9 60 0,0
05.08.2020 12:00:00 23,7 11,7 - 22 12 - - SSW 1013,0 60 0,0
05.08.2020 11:00:00 23,0 12,7 - 22 12 - - SSW 1013,4 60 0,0
05.08.2020 10:00:00 21,6 12,3 20,0 21 11 - - SSW 1013,6 60 0,0
05.08.2020 09:00:00 19,7 13,4 - 16 9 - - SSW 1013,9 60 0,0
05.08.2020 08:00:00 18,1 13,3 - 16 9 - - SSW 1013,8 54 0,0
05.08.2020 07:00:00 15,4 13,1 - 13 7 - - SSW 1013,5 30 0,0
05.08.2020 06:00:00 14,6 13,1 - 8 4 - - WSW 1013,6 0 0,0
05.08.2020 05:00:00 14,3 13,1 - 9 5 - - SSW 1013,6 0 0,0
05.08.2020 04:00:00 14,1 12,5 - 11 6 - - S 1013,7 0 0,0
05.08.2020 03:00:00 13,9 12,4 - 9 5 - - SSW 1013,9 0 0,0
05.08.2020 02:00:00 14,1 12,2 - 8 4 - - S 1014,0 0 0,0
05.08.2020 01:00:00 13,8 11,6 - 4 2 - - SSE 1014,4 - 0,0
05.08.2020 00:00:00 14,4 11,2 - 5 3 - - SSW 1014,6 0 0,0
04.08.2020 23:00:00 15,4 11,0 - 11 6 - - SSW 1014,6 0 0,0
04.08.2020 22:00:00 15,6 11,7 - 5 3 - - SW 1015,1 0 0,0
04.08.2020 21:00:00 16,7 11,6 - 13 7 - - SSW 1014,7 30 0,0
04.08.2020 20:00:00 18,4 10,7 - 18 10 - - SW 1014,6 60 0,0
04.08.2020 19:00:00 19,9 10,4 - 21 11 - - SW 1014,7 60 0,0
04.08.2020 18:00:00 20,3 8,4 - 21 11 - - SW 1014,8 48 0,0
04.08.2020 17:00:00 20,2 8,1 - 18 10 - - SW 1015,0 54 0,0
04.08.2020 16:00:00 21,4 7,4 - 22 12 - - SW 1015,5 54 0,0
04.08.2020 15:00:00 20,9 6,1 - 21 11 - - SSW 1015,7 30 0,0
04.08.2020 14:00:00 22,6 5,7 - 18 10 - - SW 1016,0 54 0,0
04.08.2020 13:00:00 22,6 7,6 - 18 10 - - WSW 1016,3 42 0,0
04.08.2020 12:00:00 20,2 10,1 - 18 10 - - WSW 1016,7 36 0,0
04.08.2020 11:00:00 19,5 11,6 - 13 7 - - SW 1017,0 42 0,0
04.08.2020 10:00:00 19,8 12,4 19,7 16 9 - - S 1017,3 54 0,0
04.08.2020 09:00:00 18,1 13,4 - 11 6 - - S 1017,8 60 0,0
04.08.2020 08:00:00 15,7 12,8 - 2 1 - - WNW 1017,8 60 0,0
04.08.2020 07:00:00 10,7 10,6 - 0 0 - - N 1017,5 48 0,0
04.08.2020 06:00:00 8,3 7,9 - 2 1 - - SSW 1017,4 0 0,0
04.08.2020 05:00:00 8,3 7,7 - 0 0 - - N 1017,4 0 0,0
04.08.2020 04:00:00 9,1 8,6 - 2 1 - - SSE 1017,6 0 0,0
04.08.2020 03:00:00 9,8 9,1 - 2 1 - - W 1017,6 0 0,0
04.08.2020 02:00:00 10,8 9,8 - 5 3 - - SW 1017,7 0 0,0
04.08.2020 01:00:00 12,1 10,6 - 4 2 - - SW 1017,8 - 0,0
04.08.2020 00:00:00 13,8 10,7 - 2 1 - - ENE 1017,8 0 0,0
03.08.2020 23:00:00 16,3 11,6 - 9 5 - - E 1017,3 0 0,0

tt = Température de l'air
td = dewpoint
tt -20cm = Température de l'air -20cm
ff = Vitesse du vent
fx = gusts
dd = Direction du vent
ppp = reduced air pressure
sd = Ensoleillement
rr = Quantités de précipitations

stations d'obs. à proximité